Terminal Aerodrome Forecast
Issued by NWS

Home | Current Version | Previous Version | Text Only | Print | Product List | Glossary On
Versions: 1 2 3 4 5 6 7 8 9 10 11 12 13 14 15 16 17 18
000
FTUS44 KCRP 221729
TAFALI
TAF
KALI 221729Z 2218/2318 13008KT P6SM FEW035 SCT050
     FM222000 13014KT P6SM SCT040
     FM230300 14006KT 5SM BR BKN025 OVC250
     FM230900 VRB04KT 2SM BR SCT005 OVC015
      TEMPO 2310/2312 1/2SM FG VV004
     FM231500 15008KT P6SM SCT020=

USA.gov is the U.S. government's official web portal to all federal, state and local government web resources and services.